Time;durP1;ratioP1;P1;durP2;ratioP2;P2;SDS_P1;SDS_P2;PMS_P1;PMS_P2;Temp;Humidity;BMP_temperature;BMP_pressure;BME280_temperature;BME280_humidity;BME280_pressure;Samples;Min_cycle;Max_cycle;Signal;HPM_P1;HPM_P2
2021/01/26 00:02:22;;;;;;;31.27;16.55;;;0.30;66.80;;;;;;5087285;28;20051;-70
2021/01/26 00:04:49;;;;;;;27.15;16.85;;;0.30;67.40;;;;;;5088430;28;20418;-70
2021/01/26 00:07:16;;;;;;;31.23;17.25;;;0.20;67.60;;;;;;5083808;28;20048;-71
2021/01/26 00:09:45;;;;;;;30.55;17.23;;;0.20;68.60;;;;;;5088152;28;20187;-69
2021/01/26 00:12:12;;;;;;;26.42;15.35;;;0.10;69.20;;;;;;5085716;28;20048;-70
2021/01/26 00:14:39;;;;;;;30.60;16.90;;;0.10;68.80;;;;;;5088710;28;20044;-70
2021/01/26 00:17:05;;;;;;;28.92;16.45;;;0.10;69.40;;;;;;5086835;28;20386;-69
2021/01/26 00:19:33;;;;;;;26.35;16.65;;;0.10;69.60;;;;;;5089199;28;20760;-69
2021/01/26 00:22:00;;;;;;;28.80;16.30;;;0.10;69.80;;;;;;5088938;28;20436;-69
2021/01/26 00:24:27;;;;;;;29.55;16.55;;;0.10;69.30;;;;;;5086532;28;20050;-69
2021/01/26 00:26:54;;;;;;;29.45;17.02;;;0.20;69.60;;;;;;5086345;28;20048;-70
2021/01/26 00:29:21;;;;;;;27.45;16.77;;;0.20;69.10;;;;;;5088074;28;20068;-69
2021/01/26 00:31:48;;;;;;;30.70;17.33;;;0.20;68.60;;;;;;5085753;28;20049;-70
2021/01/26 00:34:15;;;;;;;28.17;17.52;;;0.20;68.10;;;;;;5087909;28;20109;-70
2021/01/26 00:36:42;;;;;;;29.08;17.85;;;0.30;68.00;;;;;;5085579;28;20066;-70
2021/01/26 00:39:09;;;;;;;31.83;16.95;;;0.30;66.80;;;;;;5088691;28;20422;-70
2021/01/26 00:41:36;;;;;;;27.00;17.13;;;0.30;66.20;;;;;;5084606;28;20059;-70
2021/01/26 00:44:04;;;;;;;27.67;16.67;;;0.20;66.10;;;;;;5084758;28;20040;-70
2021/01/26 00:46:30;;;;;;;29.73;17.48;;;0.20;65.90;;;;;;5084434;28;20058;-70
2021/01/26 00:48:58;;;;;;;29.05;16.65;;;0.20;66.00;;;;;;5086727;28;20102;-70
2021/01/26 00:51:25;;;;;;;25.65;15.75;;;0.20;65.40;;;;;;5083674;28;20055;-70
2021/01/26 00:53:51;;;;;;;27.90;16.73;;;0.10;64.40;;;;;;5085280;28;20134;-70
2021/01/26 00:56:18;;;;;;;30.77;16.17;;;0.10;64.50;;;;;;5083841;28;20047;-67
2021/01/26 00:58:45;;;;;;;25.08;15.63;;;0.00;64.90;;;;;;5088557;28;20055;-68
2021/01/26 01:01:13;;;;;;;28.38;17.00;;;0.00;64.80;;;;;;5085381;28;20040;-68
2021/01/26 01:03:40;;;;;;;29.83;16.88;;;0.00;64.70;;;;;;5087974;28;20036;-70
2021/01/26 01:06:07;;;;;;;26.83;15.55;;;0.00;62.90;;;;;;5088912;28;20044;-69
2021/01/26 01:08:34;;;;;;;25.45;16.13;;;0.00;61.20;;;;;;5087193;28;20524;-69
2021/01/26 01:11:01;;;;;;;25.08;15.02;;;0.00;61.90;;;;;;5085738;28;20485;-69
2021/01/26 01:13:28;;;;;;;25.55;14.82;;;0.00;61.90;;;;;;5087196;28;20044;-69
2021/01/26 01:15:55;;;;;;;25.17;14.55;;;0.10;61.90;;;;;;5087843;28;20445;-70
2021/01/26 01:18:23;;;;;;;23.52;14.50;;;0.10;61.90;;;;;;5084067;28;20052;-71
2021/01/26 01:20:49;;;;;;;25.95;15.82;;;0.10;61.30;;;;;;5087769;28;20056;-71
2021/01/26 01:23:16;;;;;;;27.73;14.32;;;0.20;60.20;;;;;;5085136;28;20050;-71
2021/01/26 01:25:43;;;;;;;23.50;14.55;;;0.20;58.10;;;;;;5086944;28;20049;-72
2021/01/26 01:28:10;;;;;;;27.23;14.68;;;0.20;57.90;;;;;;5084062;28;20135;-72
2021/01/26 01:30:37;;;;;;;25.52;14.02;;;0.20;56.90;;;;;;5084545;28;20051;-72
2021/01/26 01:33:05;;;;;;;22.75;13.93;;;0.20;55.70;;;;;;5085736;28;20070;-72
2021/01/26 01:35:34;;;;;;;21.40;13.25;;;0.20;54.70;;;;;;5084815;28;20101;-72
2021/01/26 01:38:01;;;;;;;22.27;12.65;;;0.20;50.30;;;;;;5084342;28;20050;-72
2021/01/26 01:40:30;;;;;;;22.10;12.77;;;0.20;48.20;;;;;;5086133;28;20725;-71
2021/01/26 01:42:57;;;;;;;21.83;11.73;;;0.20;49.30;;;;;;5085961;28;20048;-71
2021/01/26 01:45:25;;;;;;;19.55;11.63;;;0.20;48.60;;;;;;5086428;28;20059;-72
2021/01/26 01:47:55;;;;;;;18.95;11.88;;;0.20;47.00;;;;;;5085473;28;20040;-72
2021/01/26 01:50:29;;;;;;;19.08;11.07;;;0.20;47.80;;;;;;5085414;28;20141;-72
2021/01/26 01:53:01;;;;;;;18.17;11.57;;;0.20;47.50;;;;;;5086032;28;20052;-71
2021/01/26 01:55:31;;;;;;;19.50;11.15;;;0.20;47.70;;;;;;5087472;28;20433;-72
2021/01/26 01:58:05;;;;;;;17.38;10.50;;;0.10;46.30;;;;;;5084791;28;20055;-72
2021/01/26 02:00:34;;;;;;;15.88;10.00;;;0.20;45.80;;;;;;5085080;28;20040;-72
2021/01/26 02:03:09;;;;;;;17.80;10.38;;;0.20;46.00;;;;;;5087481;28;20040;-71
2021/01/26 02:05:36;;;;;;;18.15;9.85;;;0.20;45.70;;;;;;5087226;28;20171;-72
2021/01/26 02:08:08;;;;;;;14.90;9.57;;;0.20;45.00;;;;;;5084367;28;20040;-72
2021/01/26 02:10:35;;;;;;;14.68;8.82;;;0.20;43.50;;;;;;5085240;28;20058;-73
2021/01/26 02:13:02;;;;;;;18.33;10.95;;;0.20;43.20;;;;;;5086115;28;20040;-71
2021/01/26 02:15:29;;;;;;;15.43;8.73;;;0.20;43.50;;;;;;5087059;28;20074;-72
2021/01/26 02:18:18;;;;;;;16.42;9.68;;;0.20;43.20;;;;;;5084105;28;20131;-71
2021/01/26 02:21:19;;;;;;;20.42;10.07;;;0.30;43.80;;;;;;5085832;28;20044;-72
2021/01/26 02:24:39;;;;;;;18.35;10.05;;;0.30;44.40;;;;;;5080381;28;20055;-72
2021/01/26 02:27:48;;;;;;;17.55;9.95;;;0.30;45.10;;;;;;5000943;28;20080;-72
2021/01/26 02:30:31;;;;;;;17.60;10.77;;;0.30;44.60;;;;;;5082486;28;20048;-72
2021/01/26 02:33:32;;;;;;;20.73;11.27;;;0.30;43.70;;;;;;5083685;28;20505;-71
2021/01/26 02:36:23;;;;;;;24.13;11.32;;;0.40;43.20;;;;;;5087901;28;20501;-71
2021/01/26 02:39:36;;;;;;;18.02;10.50;;;0.50;42.50;;;;;;5085458;28;20048;-71
2021/01/26 02:42:23;;;;;;;21.63;11.02;;;0.50;43.80;;;;;;5083423;28;20040;-71
2021/01/26 02:45:20;;;;;;;18.67;10.43;;;0.50;44.00;;;;;;5086368;28;20052;-71
2021/01/26 02:48:08;;;;;;;20.00;10.00;;;0.50;43.80;;;;;;5085393;28;20502;-70
2021/01/26 02:50:45;;;;;;;18.00;10.07;;;0.50;42.60;;;;;;5089149;28;20060;-71
2021/01/26 02:53:17;;;;;;;18.60;10.45;;;0.50;42.80;;;;;;5088830;28;20806;-71
2021/01/26 02:55:52;;;;;;;21.52;11.30;;;0.50;42.60;;;;;;5091051;28;20052;-71
2021/01/26 02:58:28;;;;;;;22.10;11.63;;;0.50;43.10;;;;;;5085027;28;20044;-71
2021/01/26 03:00:58;;;;;;;18.83;10.02;;;0.60;43.10;;;;;;5088447;28;20068;-71
2021/01/26 03:03:32;;;;;;;17.95;10.40;;;0.60;42.60;;;;;;5087459;28;20418;-71
2021/01/26 03:06:04;;;;;;;21.80;10.20;;;0.60;42.60;;;;;;5087566;28;20405;-71
2021/01/26 03:08:34;;;;;;;20.13;11.10;;;0.50;43.30;;;;;;5086843;28;20516;-71
2021/01/26 03:11:10;;;;;;;21.08;11.10;;;0.50;43.40;;;;;;5088343;28;20040;-71
2021/01/26 03:13:41;;;;;;;18.83;11.35;;;0.40;42.50;;;;;;5088801;28;20138;-71
2021/01/26 03:16:15;;;;;;;15.75;9.63;;;0.40;42.50;;;;;;5089581;28;20440;-71
2021/01/26 03:18:47;;;;;;;17.52;10.32;;;0.40;42.50;;;;;;5087316;28;20123;-71
2021/01/26 03:21:18;;;;;;;17.88;9.25;;;0.30;42.70;;;;;;5088824;28;20059;-71
2021/01/26 03:23:50;;;;;;;20.20;10.15;;;0.20;42.30;;;;;;5088261;28;20123;-71
2021/01/26 03:26:21;;;;;;;16.73;9.38;;;0.20;42.30;;;;;;5087397;28;20064;-71
2021/01/26 03:28:54;;;;;;;18.10;9.88;;;0.20;41.50;;;;;;5088357;28;20044;-71
2021/01/26 03:31:28;;;;;;;16.60;9.88;;;0.20;42.30;;;;;;5087841;28;20051;-71
2021/01/26 03:33:55;;;;;;;17.13;9.47;;;0.30;42.40;;;;;;5089083;28;20144;-71
2021/01/26 03:36:22;;;;;;;16.65;9.65;;;0.30;42.40;;;;;;5087536;28;20056;-71
2021/01/26 03:38:52;;;;;;;17.65;10.20;;;0.30;41.60;;;;;;5088951;28;20047;-71
2021/01/26 03:41:20;;;;;;;16.83;10.57;;;0.40;41.90;;;;;;5087190;28;20040;-71
2021/01/26 03:43:48;;;;;;;16.50;9.13;;;0.40;41.10;;;;;;5089502;28;20047;-71
2021/01/26 03:46:29;;;;;;;16.48;9.15;;;0.30;40.90;;;;;;5088075;28;20054;-70
2021/01/26 03:49:13;;;;;;;18.85;9.27;;;0.40;40.40;;;;;;5086088;28;20049;-71
2021/01/26 03:52:00;;;;;;;17.00;9.57;;;0.40;39.90;;;;;;5086919;28;20535;-72
2021/01/26 03:54:31;;;;;;;17.27;9.20;;;0.40;39.40;;;;;;5089909;28;20054;-69
2021/01/26 03:57:22;;;;;;;16.27;9.63;;;0.40;39.90;;;;;;5087513;28;20685;-69
2021/01/26 04:00:14;;;;;;;15.45;8.65;;;0.40;39.00;;;;;;5090887;28;20040;-70
2021/01/26 04:03:00;;;;;;;14.48;8.48;;;0.40;39.10;;;;;;5090446;28;20127;-70
2021/01/26 04:05:37;;;;;;;17.48;9.27;;;0.40;38.20;;;;;;5089650;28;20235;-70
2021/01/26 04:08:12;;;;;;;18.25;8.82;;;0.50;38.20;;;;;;5085699;28;20051;-70
2021/01/26 04:10:44;;;;;;;16.45;8.52;;;0.50;38.40;;;;;;5087492;28;20823;-71
2021/01/26 04:13:14;;;;;;;14.00;7.93;;;0.60;37.00;;;;;;5089689;28;20044;-73
2021/01/26 04:15:48;;;;;;;18.15;8.18;;;0.60;37.20;;;;;;5091388;28;20036;-71
2021/01/26 04:18:20;;;;;;;13.95;7.18;;;0.60;37.00;;;;;;5087597;28;20048;-71
2021/01/26 04:20:49;;;;;;;12.93;6.75;;;0.60;36.20;;;;;;5088920;28;20143;-71
2021/01/26 04:23:17;;;;;;;11.65;5.70;;;0.60;36.20;;;;;;5086838;28;20135;-71
2021/01/26 04:25:45;;;;;;;12.35;5.93;;;0.70;34.50;;;;;;5091242;28;20047;-70
2021/01/26 04:28:15;;;;;;;9.43;5.47;;;0.70;34.50;;;;;;5085039;28;20399;-71
2021/01/26 04:30:43;;;;;;;10.90;5.05;;;0.70;34.50;;;;;;5087786;28;20040;-70
2021/01/26 04:33:13;;;;;;;12.10;5.57;;;0.80;33.50;;;;;;5089959;28;20048;-71
2021/01/26 04:35:40;;;;;;;13.60;5.60;;;0.70;34.50;;;;;;5088441;28;20493;-73
2021/01/26 04:38:07;;;;;;;8.82;5.38;;;0.80;33.80;;;;;;5087197;28;20059;-71
2021/01/26 04:40:35;;;;;;;9.73;5.03;;;0.80;33.50;;;;;;5087519;28;20486;-70
2021/01/26 04:43:09;;;;;;;9.77;4.53;;;0.80;34.50;;;;;;5087733;28;20075;-70
2021/01/26 04:45:46;;;;;;;6.60;4.43;;;0.80;34.60;;;;;;5090697;28;20090;-70
2021/01/26 04:48:20;;;;;;;8.30;4.47;;;0.80;34.60;;;;;;5086659;28;20054;-70
2021/01/26 04:50:53;;;;;;;11.20;5.00;;;0.80;34.60;;;;;;5088660;28;20568;-70
2021/01/26 04:53:46;;;;;;;7.80;4.32;;;0.90;34.60;;;;;;5087974;28;20456;-71
2021/01/26 04:56:19;;;;;;;10.15;4.50;;;0.90;34.70;;;;;;5084558;28;20040;-71
2021/01/26 04:59:06;;;;;;;10.30;4.18;;;1.00;33.80;;;;;;5085921;28;20443;-70
2021/01/26 05:01:46;;;;;;;8.32;3.63;;;1.00;34.50;;;;;;5086960;28;20414;-69
2021/01/26 05:04:16;;;;;;;8.30;3.85;;;1.00;34.70;;;;;;5086804;28;20106;-69
2021/01/26 05:06:48;;;;;;;7.40;3.33;;;1.00;34.70;;;;;;5085132;28;20516;-71
2021/01/26 05:09:17;;;;;;;9.07;3.75;;;1.00;35.50;;;;;;5084580;28;20079;-70
2021/01/26 05:11:46;;;;;;;7.70;3.20;;;1.00;36.50;;;;;;5086151;28;20052;-70
2021/01/26 05:14:18;;;;;;;5.72;3.08;;;1.00;35.50;;;;;;5088520;28;20402;-70
2021/01/26 05:16:53;;;;;;;6.50;3.53;;;1.10;34.90;;;;;;5085261;28;20058;-70
2021/01/26 05:19:26;;;;;;;5.82;3.15;;;1.10;35.40;;;;;;5088837;28;20048;-70
2021/01/26 05:22:00;;;;;;;8.25;3.20;;;1.10;35.40;;;;;;5085436;28;20051;-70
2021/01/26 05:24:31;;;;;;;9.85;3.58;;;1.10;35.30;;;;;;5088694;28;20044;-70
2021/01/26 05:26:58;;;;;;;6.78;3.30;;;1.10;35.40;;;;;;5084930;28;20067;-71
2021/01/26 05:29:25;;;;;;;5.78;3.13;;;1.10;33.70;;;;;;5086703;28;20078;-69
2021/01/26 05:31:58;;;;;;;7.78;3.13;;;1.20;31.50;;;;;;5083807;28;20067;-69
2021/01/26 05:34:28;;;;;;;6.75;3.50;;;1.30;31.20;;;;;;5086833;28;20051;-69
2021/01/26 05:36:55;;;;;;;8.95;2.88;;;1.30;30.20;;;;;;5083167;28;20411;-70
2021/01/26 05:39:31;;;;;;;5.78;3.25;;;1.30;31.30;;;;;;5086469;28;20059;-71
2021/01/26 05:41:59;;;;;;;4.25;2.35;;;1.30;30.00;;;;;;5082695;28;20052;-70
2021/01/26 05:44:26;;;;;;;6.32;3.00;;;1.40;28.70;;;;;;5084680;28;20044;-70
2021/01/26 05:46:54;;;;;;;6.20;2.78;;;1.40;29.20;;;;;;5082548;28;20052;-70
2021/01/26 05:49:36;;;;;;;9.35;3.72;;;1.40;29.00;;;;;;5087744;28;20052;-70
2021/01/26 05:52:04;;;;;;;7.20;2.63;;;1.40;28.50;;;;;;5084235;28;20516;-71
2021/01/26 05:54:35;;;;;;;5.32;2.75;;;1.40;28.20;;;;;;5085125;28;20413;-71
2021/01/26 05:57:02;;;;;;;5.57;2.30;;;1.50;28.20;;;;;;5083894;28;20400;-70
2021/01/26 05:59:31;;;;;;;5.28;3.05;;;1.40;27.60;;;;;;5087786;28;20051;-70
2021/01/26 06:02:13;;;;;;;12.15;3.17;;;1.50;27.60;;;;;;5084181;28;20052;-70
2021/01/26 06:04:41;;;;;;;5.43;2.58;;;1.50;27.50;;;;;;5085938;28;20044;-69
2021/01/26 06:07:19;;;;;;;4.43;2.25;;;1.50;27.60;;;;;;5082694;28;20062;-70
2021/01/26 06:09:47;;;;;;;4.75;2.63;;;1.40;27.80;;;;;;5085050;28;20064;-70
2021/01/26 06:12:17;;;;;;;4.60;2.50;;;1.50;27.50;;;;;;5082750;28;20052;-69
2021/01/26 06:14:46;;;;;;;9.43;2.28;;;1.50;27.50;;;;;;5087171;28;20032;-70
2021/01/26 06:17:22;;;;;;;11.02;2.40;;;1.60;27.60;;;;;;5087708;28;20512;-69
2021/01/26 06:20:06;;;;;;;5.05;1.73;;;1.60;28.20;;;;;;5088343;28;20047;-70
2021/01/26 06:22:34;;;;;;;3.17;1.65;;;1.60;27.60;;;;;;5087688;28;20062;-69
2021/01/26 06:25:05;;;;;;;8.23;2.25;;;1.60;27.60;;;;;;5087768;28;20043;-70
2021/01/26 06:27:53;;;;;;;4.63;2.30;;;1.50;28.70;;;;;;5087627;28;20091;-69
2021/01/26 06:30:42;;;;;;;6.28;2.50;;;1.50;29.10;;;;;;5087314;28;20091;-70
2021/01/26 06:33:45;;;;;;;6.13;2.38;;;1.50;29.70;;;;;;5087582;28;20450;-69
2021/01/26 06:36:38;;;;;;;7.25;1.92;;;1.50;29.90;;;;;;5086533;28;20082;-69
2021/01/26 06:39:22;;;;;;;8.48;2.85;;;1.50;31.50;;;;;;5087651;28;20055;-69
2021/01/26 06:42:03;;;;;;;5.43;2.58;;;1.50;32.90;;;;;;5089053;28;20048;-71
2021/01/26 06:45:12;;;;;;;4.75;2.15;;;1.40;35.10;;;;;;5087702;28;20047;-70
2021/01/26 06:48:11;;;;;;;3.60;2.08;;;1.40;36.00;;;;;;5087907;28;20075;-70
2021/01/26 06:51:03;;;;;;;4.85;2.47;;;1.30;37.10;;;;;;5086277;28;20566;-69
2021/01/26 06:53:42;;;;;;;7.28;2.50;;;1.30;37.20;;;;;;5086026;28;20040;-70
2021/01/26 06:56:32;;;;;;;5.20;2.30;;;1.30;38.60;;;;;;5086862;28;20081;-71
2021/01/26 06:59:20;;;;;;;5.28;2.50;;;1.30;37.10;;;;;;5089242;28;20055;-71
2021/01/26 07:02:13;;;;;;;8.55;2.75;;;1.40;35.90;;;;;;5085598;28;20048;-71
2021/01/26 07:05:04;;;;;;;4.13;2.70;;;1.40;36.10;;;;;;5086562;28;20370;-71
2021/01/26 07:08:04;;;;;;;6.07;2.65;;;1.30;35.00;;;;;;5087345;28;20044;-71
2021/01/26 07:11:09;;;;;;;6.20;3.00;;;1.40;36.60;;;;;;5087175;28;20070;-69
2021/01/26 07:13:43;;;;;;;10.73;3.65;;;1.40;35.90;;;;;;5084103;28;20052;-71
2021/01/26 07:16:41;;;;;;;9.05;2.53;;;1.40;35.90;;;;;;5086761;28;20037;-70
2021/01/26 07:19:33;;;;;;;6.57;2.60;;;1.50;35.20;;;;;;5087613;28;20086;-70
2021/01/26 07:22:15;;;;;;;9.20;2.78;;;1.50;34.80;;;;;;5087849;28;20127;-70
2021/01/26 07:24:52;;;;;;;9.57;3.88;;;1.50;34.90;;;;;;5087561;28;20434;-70
2021/01/26 07:27:40;;;;;;;6.80;3.13;;;1.40;35.10;;;;;;5087058;28;20044;-70
2021/01/26 07:30:13;;;;;;;6.70;3.08;;;1.40;35.10;;;;;;5088671;28;20048;-70
2021/01/26 07:32:56;;;;;;;8.13;3.05;;;1.40;35.30;;;;;;5087891;28;20044;-69
2021/01/26 07:35:32;;;;;;;7.80;3.17;;;1.40;35.90;;;;;;5089716;28;20413;-70
2021/01/26 07:38:04;;;;;;;8.50;3.65;;;1.40;37.50;;;;;;5089603;28;20062;-70
2021/01/26 07:40:35;;;;;;;5.95;3.47;;;1.40;37.20;;;;;;5093120;28;20131;-70
2021/01/26 07:43:12;;;;;;;5.90;3.08;;;1.40;38.40;;;;;;5089802;28;20045;-69
2021/01/26 07:45:49;;;;;;;5.47;3.33;;;1.30;39.10;;;;;;5091859;28;20036;-69
2021/01/26 07:48:24;;;;;;;9.20;3.85;;;1.30;38.40;;;;;;5094670;28;20044;-69
2021/01/26 07:50:55;;;;;;;9.00;3.78;;;1.30;37.80;;;;;;5085547;28;20079;-70
2021/01/26 07:53:28;;;;;;;7.28;3.90;;;1.30;37.50;;;;;;5090458;28;20816;-70
2021/01/26 07:56:06;;;;;;;10.63;4.10;;;1.40;36.70;;;;;;5081243;28;20048;-70
2021/01/26 07:58:34;;;;;;;7.30;4.60;;;1.40;36.10;;;;;;5086867;28;20321;-70
2021/01/26 08:01:03;;;;;;;12.00;4.93;;;1.40;37.30;;;;;;5084122;28;20044;-69
2021/01/26 08:03:31;;;;;;;9.15;5.22;;;1.40;35.10;;;;;;5092594;28;20561;-69
2021/01/26 08:06:00;;;;;;;8.80;4.25;;;1.40;35.40;;;;;;5094230;28;20040;-68
2021/01/26 08:08:30;;;;;;;8.27;5.30;;;1.40;35.80;;;;;;5094207;28;20044;-68
2021/01/26 08:11:14;;;;;;;10.68;5.00;;;1.40;36.30;;;;;;5093826;28;20444;-70
2021/01/26 08:13:49;;;;;;;7.68;4.53;;;1.50;36.10;;;;;;5085302;28;20044;-70
2021/01/26 08:16:21;;;;;;;9.43;5.00;;;1.40;35.50;;;;;;5089294;28;20055;-70
2021/01/26 08:18:50;;;;;;;9.73;4.90;;;1.50;36.50;;;;;;5093431;28;20044;-70
2021/01/26 08:21:31;;;;;;;8.75;4.97;;;1.40;35.20;;;;;;5089744;28;20052;-70
2021/01/26 08:24:27;;;;;;;12.43;4.60;;;1.50;35.20;;;;;;5089543;28;20409;-68
2021/01/26 08:26:56;;;;;;;;;;;1.60;35.80;;;;;;5089278;28;20100;-69
2021/01/26 08:29:52;;;;;;;8.75;4.65;;;1.50;36.20;;;;;;5091846;28;20377;-71
2021/01/26 08:32:45;;;;;;;9.68;4.75;;;1.50;35.10;;;;;;5089866;28;20054;-71
2021/01/26 08:35:40;;;;;;;9.40;4.35;;;1.50;35.40;;;;;;5088273;28;20040;-70
2021/01/26 08:38:08;;;;;;;15.40;5.78;;;1.40;35.10;;;;;;5090134;28;20136;-70
2021/01/26 08:41:01;;;;;;;7.85;4.63;;;1.40;35.10;;;;;;5089691;28;20044;-70
2021/01/26 08:43:47;;;;;;;12.48;4.82;;;1.50;33.70;;;;;;5089071;28;20156;-71
2021/01/26 08:46:37;;;;;;;9.30;4.47;;;1.50;32.90;;;;;;5088489;28;20055;-71
2021/01/26 08:49:17;;;;;;;11.32;4.97;;;1.60;31.90;;;;;;5089523;28;20490;-72
2021/01/26 08:51:44;;;;;;;7.75;3.75;;;1.60;31.00;;;;;;5090256;28;20469;-71
2021/01/26 08:54:41;;;;;;;8.10;4.10;;;1.60;30.70;;;;;;5088419;28;20044;-72
2021/01/26 08:57:38;;;;;;;7.80;3.67;;;1.60;29.90;;;;;;5087456;28;20140;-72
2021/01/26 09:00:25;;;;;;;5.80;3.15;;;1.60;29.60;;;;;;5089594;28;20134;-70
2021/01/26 09:02:53;;;;;;;8.40;3.65;;;1.60;27.80;;;;;;5088608;28;20048;-71
2021/01/26 09:05:54;;;;;;;5.18;3.47;;;1.70;28.50;;;;;;5089554;28;20044;-71
2021/01/26 09:08:54;;;;;;;6.05;3.28;;;1.70;27.70;;;;;;5087484;28;20044;-72
2021/01/26 09:11:35;;;;;;;4.53;2.95;;;1.80;27.70;;;;;;5089743;28;20047;-71
2021/01/26 09:14:23;;;;;;;6.95;3.17;;;1.80;26.10;;;;;;5090060;28;20044;-71
2021/01/26 09:16:57;;;;;;;6.30;3.22;;;1.90;26.10;;;;;;5092447;28;20044;-72
2021/01/26 09:19:27;;;;;;;6.55;3.20;;;2.00;25.00;;;;;;5089912;28;20107;-72
2021/01/26 09:21:54;;;;;;;3.75;2.38;;;2.10;25.60;;;;;;5091608;28;20075;-72
2021/01/26 09:24:25;;;;;;;6.82;3.35;;;2.10;23.40;;;;;;5089348;28;20048;-72
2021/01/26 09:26:52;;;;;;;5.60;2.45;;;2.30;23.40;;;;;;5091092;28;20058;-72
2021/01/26 09:29:24;;;;;;;7.57;3.10;;;2.20;21.30;;;;;;5092032;28;20054;-72
2021/01/26 09:31:53;;;;;;;6.45;2.95;;;2.30;21.90;;;;;;5089596;28;20052;-71
2021/01/26 09:34:26;;;;;;;8.15;2.92;;;2.30;22.50;;;;;;5088691;28;20079;-71
2021/01/26 09:37:09;;;;;;;7.93;3.20;;;2.40;21.70;;;;;;5092045;28;20044;-72
2021/01/26 09:39:36;;;;;;;5.13;2.60;;;2.30;21.30;;;;;;5090858;28;20044;-71
2021/01/26 09:42:23;;;;;;;5.85;2.80;;;2.30;21.30;;;;;;5088545;28;20047;-71
2021/01/26 09:44:57;;;;;;;5.03;2.25;;;2.30;21.40;;;;;;5089717;28;20418;-70
2021/01/26 09:47:26;;;;;;;5.35;2.38;;;2.20;21.30;;;;;;5090086;28;20047;-72
2021/01/26 09:50:00;;;;;;;3.88;2.60;;;2.20;21.30;;;;;;5090418;28;20658;-71
2021/01/26 09:52:28;;;;;;;6.25;2.33;;;2.20;21.30;;;;;;5089040;28;20073;-71
2021/01/26 09:55:03;;;;;;;8.27;2.70;;;2.20;21.30;;;;;;5090284;28;20050;-73
2021/01/26 09:57:31;;;;;;;6.43;2.75;;;2.20;21.30;;;;;;5088883;28;20071;-71
2021/01/26 09:59:59;;;;;;;3.13;1.80;;;2.30;19.80;;;;;;5088274;28;20402;-71
2021/01/26 10:02:28;;;;;;;5.22;2.58;;;2.20;21.30;;;;;;5090614;28;20056;-72
2021/01/26 10:04:55;;;;;;;5.93;2.80;;;2.40;20.80;;;;;;5089623;28;20444;-72
2021/01/26 10:07:23;;;;;;;5.70;2.10;;;2.40;20.60;;;;;;5084282;28;20438;-71
2021/01/26 10:09:51;;;;;;;3.20;2.15;;;2.40;18.00;;;;;;5090386;28;20052;-70
2021/01/26 10:12:22;;;;;;;3.83;2.47;;;2.40;18.60;;;;;;5086361;28;20100;-71
2021/01/26 10:15:11;;;;;;;7.35;2.70;;;2.50;18.60;;;;;;5087999;28;20039;-72
2021/01/26 10:17:49;;;;;;;4.30;2.50;;;2.60;18.10;;;;;;5088048;28;20126;-69
2021/01/26 10:20:26;;;;;;;4.00;2.05;;;2.70;17.80;;;;;;5088683;28;20040;-69
2021/01/26 10:23:02;;;;;;;3.95;2.10;;;2.70;17.50;;;;;;5087612;28;20047;-69
2021/01/26 10:25:30;;;;;;;5.15;2.20;;;2.80;16.80;;;;;;5086939;28;20661;-70
2021/01/26 10:28:06;;;;;;;4.15;2.35;;;2.60;16.50;;;;;;5088014;28;20044;-71
2021/01/26 10:30:42;;;;;;;4.20;2.05;;;2.70;15.90;;;;;;5089016;28;20046;-71
2021/01/26 10:33:11;;;;;;;5.95;2.15;;;2.60;16.10;;;;;;5083096;28;20522;-69
2021/01/26 10:35:39;;;;;;;5.53;2.30;;;2.60;15.70;;;;;;5089352;28;20447;-69
2021/01/26 10:38:27;;;;;;;4.60;2.42;;;2.60;16.70;;;;;;5087101;28;20054;-71
2021/01/26 10:41:06;;;;;;;8.38;2.40;;;2.40;15.90;;;;;;5088078;28;20127;-70
2021/01/26 10:43:33;;;;;;;8.30;2.30;;;2.50;16.00;;;;;;5089297;28;20044;-70
2021/01/26 10:46:00;;;;;;;4.32;2.40;;;2.40;15.80;;;;;;5089703;28;20046;-71
2021/01/26 10:48:31;;;;;;;3.08;2.40;;;2.50;16.10;;;;;;5086900;28;20054;-71
2021/01/26 10:51:15;;;;;;;6.32;2.38;;;2.60;16.60;;;;;;5085563;28;20083;-71
2021/01/26 10:53:44;;;;;;;5.13;2.15;;;2.50;15.70;;;;;;5086733;28;20128;-71
2021/01/26 10:56:12;;;;;;;4.75;2.42;;;2.50;16.20;;;;;;5085773;28;20044;-71
2021/01/26 10:58:41;;;;;;;4.43;2.33;;;2.40;16.10;;;;;;5089020;28;20058;-71
2021/01/26 11:01:08;;;;;;;7.38;3.03;;;2.50;15.40;;;;;;5086261;28;20040;-71
2021/01/26 11:03:36;;;;;;;4.93;2.33;;;2.60;15.90;;;;;;5085100;28;20098;-72
2021/01/26 11:06:03;;;;;;;5.47;2.17;;;2.40;16.00;;;;;;5084054;28;20037;-72
2021/01/26 11:08:30;;;;;;;4.70;2.78;;;2.40;16.50;;;;;;5078080;28;20054;-71
2021/01/26 11:10:58;;;;;;;8.15;2.47;;;2.30;15.70;;;;;;5077685;27;20056;-72
2021/01/26 11:13:25;;;;;;;9.13;3.20;;;2.40;16.00;;;;;;5073105;28;20043;-71
2021/01/26 11:15:52;;;;;;;5.50;2.92;;;2.40;16.20;;;;;;5077311;28;20062;-70
2021/01/26 11:18:19;;;;;;;4.63;2.92;;;2.30;16.10;;;;;;5078175;28;20043;-70
2021/01/26 11:20:47;;;;;;;5.22;2.97;;;2.40;16.40;;;;;;5077967;28;20054;-69
2021/01/26 11:23:15;;;;;;;4.85;2.47;;;2.50;16.50;;;;;;5076245;28;21827;-69
2021/01/26 11:25:42;;;;;;;4.35;2.60;;;2.70;15.80;;;;;;5082020;28;20052;-73
2021/01/26 11:28:09;;;;;;;5.10;2.95;;;2.50;15.30;;;;;;5074363;28;20044;-70
2021/01/26 11:30:36;;;;;;;4.78;2.50;;;2.60;14.60;;;;;;5080021;28;20638;-68
2021/01/26 11:33:04;;;;;;;8.43;3.10;;;2.50;14.30;;;;;;5078159;28;20056;-70
2021/01/26 11:35:32;;;;;;;5.32;2.55;;;2.50;14.50;;;;;;5072978;28;20405;-70
2021/01/26 11:38:00;;;;;;;5.32;3.42;;;2.60;14.60;;;;;;5077572;28;20597;-70
2021/01/26 11:40:28;;;;;;;4.40;3.08;;;2.50;14.50;;;;;;5078456;28;20059;-71
2021/01/26 11:42:56;;;;;;;8.00;3.47;;;2.60;14.60;;;;;;5078698;28;20051;-70
2021/01/26 11:45:25;;;;;;;7.28;3.28;;;2.60;14.60;;;;;;5076995;28;20036;-70
2021/01/26 11:47:52;;;;;;;5.72;2.90;;;2.70;14.40;;;;;;5071812;28;20070;-69
2021/01/26 11:50:20;;;;;;;6.93;3.10;;;2.50;14.50;;;;;;5080387;28;20052;-69
2021/01/26 11:52:48;;;;;;;6.53;3.42;;;2.80;14.70;;;;;;5079315;28;20139;-69
2021/01/26 11:55:20;;;;;;;8.43;3.60;;;2.90;13.90;;;;;;5078587;28;20037;-68
2021/01/26 11:57:48;;;;;;;8.30;3.40;;;2.60;12.40;;;;;;5077311;28;20074;-70
2021/01/26 12:00:17;;;;;;;7.25;3.20;;;2.70;13.50;;;;;;5079435;28;20052;-70
2021/01/26 12:02:44;;;;;;;7.30;3.60;;;2.80;11.80;;;;;;5076574;28;20059;-70
2021/01/26 12:05:13;;;;;;;10.82;4.03;;;3.30;11.60;;;;;;5078616;28;20162;-69
2021/01/26 12:07:40;;;;;;;4.07;2.95;;;3.00;11.90;;;;;;5076169;28;20048;-69
2021/01/26 12:10:08;;;;;;;8.35;3.88;;;2.80;12.60;;;;;;5076608;28;20139;-70
2021/01/26 12:12:36;;;;;;;4.72;3.45;;;2.80;12.50;;;;;;5078330;28;20243;-70
2021/01/26 12:15:04;;;;;;;6.28;3.72;;;2.90;13.30;;;;;;5081533;28;20581;-72
2021/01/26 12:17:32;;;;;;;6.38;3.67;;;2.90;12.50;;;;;;5077178;28;20048;-69
2021/01/26 12:20:01;;;;;;;6.25;3.25;;;3.00;13.20;;;;;;5079161;28;20059;-69
2021/01/26 12:22:28;;;;;;;5.35;3.25;;;2.90;11.80;;;;;;5078188;28;20082;-71
2021/01/26 12:24:55;;;;;;;6.90;3.75;;;3.00;12.40;;;;;;5078226;28;20052;-72
2021/01/26 12:27:22;;;;;;;6.68;3.40;;;3.10;12.30;;;;;;5079770;28;20055;-70
2021/01/26 12:29:50;;;;;;;6.75;3.20;;;3.10;11.10;;;;;;5077488;28;20064;-72
2021/01/26 12:32:16;;;;;;;7.22;3.55;;;3.50;11.50;;;;;;5078949;28;20044;-71
2021/01/26 12:34:43;;;;;;;8.55;3.45;;;3.30;9.90;;;;;;5075820;28;20072;-71
2021/01/26 12:37:10;;;;;;;7.50;3.10;;;3.40;11.40;;;;;;5076293;28;20396;-71
2021/01/26 12:39:37;;;;;;;5.50;3.33;;;3.30;10.00;;;;;;5076825;28;20056;-71
2021/01/26 12:42:04;;;;;;;20.90;12.20;;;3.30;10.30;;;;;;5078989;28;20044;-71
2021/01/26 12:44:31;;;;;;;7.75;3.55;;;3.50;11.50;;;;;;5080826;28;20060;-70
2021/01/26 12:46:59;;;;;;;8.50;3.30;;;3.50;11.20;;;;;;5080001;28;20117;-71
2021/01/26 12:49:26;;;;;;;5.80;3.17;;;3.70;11.00;;;;;;5078200;28;20109;-71
2021/01/26 12:51:53;;;;;;;7.63;3.17;;;3.90;10.30;;;;;;5078679;28;20141;-71
2021/01/26 12:54:21;;;;;;;5.70;3.33;;;3.60;9.30;;;;;;5074656;28;20052;-72
2021/01/26 12:56:48;;;;;;;6.32;3.65;;;3.70;10.20;;;;;;5076539;28;20044;-72
2021/01/26 12:59:15;;;;;;;8.15;3.50;;;3.70;10.80;;;;;;5073602;28;20052;-72
2021/01/26 13:01:42;;;;;;;5.68;3.08;;;3.60;11.10;;;;;;5079023;28;20052;-72
2021/01/26 13:04:10;;;;;;;5.70;3.20;;;3.70;10.30;;;;;;5075593;28;20074;-72
2021/01/26 13:06:37;;;;;;;5.50;3.25;;;3.40;11.20;;;;;;5077897;28;20044;-72
2021/01/26 13:09:06;;;;;;;6.68;3.35;;;3.40;11.70;;;;;;5077670;28;20048;-71
2021/01/26 13:11:35;;;;;;;5.88;3.70;;;3.50;12.90;;;;;;5076822;28;20055;-72
2021/01/26 13:14:03;;;;;;;5.90;3.42;;;3.30;12.50;;;;;;5077603;28;20056;-71
2021/01/26 13:16:29;;;;;;;5.88;3.17;;;3.40;12.30;;;;;;5076248;28;20052;-72
2021/01/26 13:18:57;;;;;;;9.02;3.42;;;3.30;12.20;;;;;;5071618;28;20048;-72
2021/01/26 13:21:25;;;;;;;5.53;3.47;;;3.10;13.40;;;;;;5077079;28;20055;-72
2021/01/26 13:23:51;;;;;;;5.07;3.00;;;3.30;13.20;;;;;;5076846;28;20059;-70
2021/01/26 13:26:19;;;;;;;7.43;2.85;;;3.20;13.80;;;;;;5073645;28;20054;-71